Hobart, OK

11:57 AM CDT on October 23, 2014 (GMT -0500)
Hobart Municipal | Change Station
CLOSE
Current Station
Airport
Location: Hobart,
Elevation: 1565 ft
Nearby Weather Stations

Elev 1565 ft 34.99 °N, 99.05 °W | Updated 1 hour ago

Clear
Clear
68 °F
Feels Like 68 °F
N
12
Wind Variable Wind from South

Today
High -- | Low -- °F
--% Chance of Precip.
Yesterday
High -- | Low -- °F
Precip. -- in
7:49 AM 6:51 PM
Waning Crescent, 0% visible
Pressure 30.10 in
Visibility 6.0 miles
Clouds Clear
Dew Point 62 °F
Humidity 81%
Rainfall 0.00 in
Snow Depth Not available.
UV 3 out of 12
Pollen 5.30 out of 12
Air Quality Not available.
Flu Activity No Activity
METAR KHBR 231553Z AUTO 19010KT 6SM HZ CLR 20/17 A3013 RMK AO2 SLP192 T02000167

More Conditions Fewer Conditions

Pressure 30.10 in
Visibility 6.0 miles
Clouds Clear
Dew Point 62 °F
Humidity 81%
Rainfall 0.00 in
Snow Depth Not available.
UV 3 out of 12
Pollen 5.30 out of 12
Air Quality Not available.
Flu Activity No Activity
METAR KHBR 231553Z AUTO 19010KT 6SM HZ CLR 20/17 A3013 RMK AO2 SLP192 T02000167

More Conditions Fewer Conditions

10-Day Weather Forecast

Almanac

Astronomy

Oct. 23, 2014 Rise Set
Actual Time 7:49 AM CDT 6:51 PM CDT
Civil Twilight 7:23 AM CDT 7:17 PM CDT
Nautical Twilight 6:53 AM CDT 7:46 PM CDT
Astronomical Twilight 6:24 AM CDT 8:16 PM CDT
Moon 7:31 AM CDT 6:54 PM CDT
Length of Visible Light 11h 53m
Length of Day
11h 02m
Tomorrow will be 2m 2s shorter.
Waning Crescent, 0% of the Moon is Illuminated
Today
Waning Crescent
Oct 23
New
Oct 30
First Quarter
Nov 6
Full
Nov 14
Last Quarter

Today's Extremes

State Highs State Lows

Community

WunderPhotos

Upload Photos

1,764,308 photos uploaded!

WunderBlogs® & News

Nearby

Snow Depth

Station Depth Elevation
No new snow has been reported.

Earthquake Activity

City Distance Mag. Time & Date
Medford, Oklahoma 136 miles 3.0 2:06 AM CDT
2014-10-23
Luther, Oklahoma 113 miles 2.5 10:36 PM CDT
2014-10-22
Crescent, Oklahoma 111 miles 2.7 9:58 PM CDT
2014-10-22
Mooreland, Oklahoma 102 miles 2.8 5:31 PM CDT
2014-10-22
Minimum magnitude displayed is 2.5.

Coastal Water Temperatures

Place Temperature
No Stations Reporting

Nearby Weather Stations